createdAt,value
2023-04-23T00:30:09.057Z,11.3
2023-04-23T01:00:24.275Z,10.8
2023-04-23T01:30:01.947Z,10.4
2023-04-23T02:00:02.599Z,10.5
2023-04-23T02:30:24.275Z,10.3
2023-04-23T03:00:09.682Z,11.5
2023-04-23T03:30:10.192Z,11.6
2023-04-23T04:00:17.208Z,11.3
2023-04-23T05:00:14.998Z,11.3
2023-04-23T05:30:06.639Z,12.6
2023-04-23T06:00:13.875Z,12
2023-04-23T06:30:13.815Z,12
2023-04-23T07:00:29.823Z,13.2
2023-04-23T07:30:06.561Z,13.1
2023-04-23T08:00:08.207Z,13.4
2023-04-23T08:30:22.197Z,13.7
2023-04-23T09:00:30.423Z,15.1
2023-04-23T09:30:10.440Z,17.6
2023-04-23T10:00:25.458Z,17.8
2023-04-23T10:30:10.652Z,19
2023-04-23T11:00:02.984Z,18.1
2023-04-23T11:30:04.201Z,18.8
2023-04-23T12:00:19.422Z,21.2
2023-04-23T12:30:11.345Z,24.5
2023-04-23T13:00:26.483Z,27.7
2023-04-23T13:30:12.762Z,23.2
2023-04-23T14:30:23.424Z,20.1
2023-04-23T15:00:09.521Z,20.2
2023-04-23T15:30:25.846Z,13.6
2023-04-23T16:00:25.478Z,16.7
2023-04-23T16:30:17.253Z,15.4
2023-04-23T17:00:03.660Z,14.7
2023-04-23T17:30:18.476Z,14.8
2023-04-23T18:00:11.463Z,13.6
2023-04-23T19:00:21.350Z,9.5
2023-04-23T19:30:30.902Z,9.7
2023-04-23T20:00:15.373Z,9.9
2023-04-23T20:30:01.470Z,10.4
2023-04-23T21:00:08.838Z,10.4
2023-04-23T21:30:08.608Z,10.6
2023-04-23T22:00:09.553Z,8.8
2023-04-23T22:30:25.782Z,10.1
2023-04-23T23:00:16.953Z,10.1
2023-04-23T23:30:12.352Z,10.5
